createdAt,value
2019-04-14T00:01:07.033Z,99155.45
2019-04-14T00:03:41.177Z,99152.84
2019-04-14T00:06:11.281Z,99154.87
2019-04-14T00:08:41.583Z,99159.23
2019-04-14T00:11:10.978Z,99153.70
2019-04-14T00:13:41.283Z,99146.51
2019-04-14T00:16:11.746Z,99151.97
2019-04-14T00:18:42.314Z,99148.67
2019-04-14T00:21:12.944Z,99145.76
2019-04-14T00:23:43.482Z,99145.90
2019-04-14T00:26:31.527Z,99137.06
2019-04-14T00:29:02.496Z,99136.64
2019-04-14T00:31:32.875Z,99135.82
2019-04-14T00:34:05.146Z,99137.85
2019-04-14T00:36:52.577Z,99136.52
2019-04-14T00:39:27.292Z,99133.21
2019-04-14T00:42:14.885Z,99133.22
2019-04-14T00:44:45.899Z,99128.66
2019-04-14T00:49:57.448Z,99131.91
2019-04-14T00:52:27.609Z,99128.73
2019-04-14T00:54:57.197Z,99132.72
2019-04-14T00:57:26.874Z,99128.39
2019-04-14T00:59:57.316Z,99127.55
2019-04-14T01:02:27.549Z,99126.36
2019-04-14T01:04:57.705Z,99128.23
2019-04-14T01:07:28.274Z,99125.22
2019-04-14T01:09:57.822Z,99128.16
2019-04-14T01:12:27.813Z,99132.02
2019-04-14T01:14:58.221Z,99129.39
2019-04-14T01:17:28.646Z,99138.73
2019-04-14T01:19:59.179Z,99132.84
2019-04-14T01:22:29.265Z,99129.39
2019-04-14T01:24:59.930Z,99129.19
2019-04-14T01:27:29.910Z,99133.41
2019-04-14T01:30:00.340Z,99133.41
2019-04-14T01:32:30.482Z,99129.39
2019-04-14T01:35:00.991Z,99133.69
2019-04-14T01:37:31.156Z,99138.45
2019-04-14T01:40:01.019Z,99145.02
2019-04-14T01:42:31.053Z,99149.87
2019-04-14T01:45:01.410Z,99161.82
2019-04-14T01:47:31.358Z,99160.78
2019-04-14T01:50:01.798Z,99169.52
2019-04-14T01:58:14.395Z,99149.81
2019-04-14T02:00:51.367Z,99143.73
2019-04-14T02:03:21.721Z,99145.77
2019-04-14T02:05:51.733Z,99143.14
2019-04-14T02:08:21.992Z,99141.39
2019-04-14T02:10:52.043Z,99146.16
2019-04-14T02:13:22.528Z,99151.57
2019-04-14T02:15:52.848Z,99146.04
2019-04-14T02:18:22.942Z,99145.72
2019-04-14T02:20:53.615Z,99139.30
2019-04-14T02:23:23.636Z,99138.45
2019-04-14T02:25:53.616Z,99134.50
2019-04-14T02:28:24.212Z,99139.01
2019-04-14T02:31:09.062Z,99134.39
2019-04-14T02:33:50.400Z,99137.44
2019-04-14T02:39:01.822Z,99135.63
2019-04-14T02:41:30.018Z,99127.73
2019-04-14T02:44:16.107Z,99133.33
2019-04-14T02:46:31.814Z,99126.29
2019-04-14T02:48:55.383Z,99126.47
2019-04-14T02:51:33.708Z,99120.49
2019-04-14T03:01:48.257Z,99125.52
2019-04-14T03:04:04.161Z,99122.80
2019-04-14T03:06:38.019Z,99124.12
2019-04-14T03:09:19.486Z,99129.16
2019-04-14T03:11:38.109Z,99130.95
2019-04-14T03:17:16.199Z,99137.97
2019-04-14T03:22:33.000Z,99141.00
2019-04-14T03:27:56.570Z,99153.81
2019-04-14T03:33:18.060Z,99151.53
2019-04-14T03:38:18.307Z,99147.37
2019-04-14T03:40:34.334Z,99144.53
2019-04-14T03:45:46.774Z,99149.99
2019-04-14T03:48:36.516Z,99145.48
2019-04-14T03:50:37.393Z,99152.12
2019-04-14T03:55:52.137Z,99152.95
2019-04-14T03:58:18.259Z,99159.52
2019-04-14T04:00:49.160Z,99163.04
2019-04-14T04:03:19.627Z,99168.70
2019-04-14T04:05:49.958Z,99169.50
2019-04-14T04:08:20.143Z,99165.74
2019-04-14T04:10:55.318Z,99173.67
2019-04-14T04:13:25.956Z,99177.02
2019-04-14T04:15:58.306Z,99180.48
2019-04-14T04:18:30.979Z,99179.52
2019-04-14T04:21:03.107Z,99176.72
2019-04-14T04:23:49.626Z,99179.85
2019-04-14T04:26:36.576Z,99182.83
2019-04-14T04:29:07.693Z,99179.72
2019-04-14T04:31:48.300Z,99188.47
2019-04-14T04:34:25.405Z,99182.55
2019-04-14T04:36:57.481Z,99180.48
2019-04-14T04:42:11.288Z,99183.24
2019-04-14T04:44:42.030Z,99180.90
2019-04-14T04:47:12.342Z,99191.39
2019-04-14T04:49:42.624Z,99186.97
2019-04-14T04:52:13.959Z,99197.06
2019-04-14T04:54:43.232Z,99194.98
2019-04-14T04:57:13.388Z,99196.50
2019-04-14T04:59:43.066Z,99200.73
2019-04-14T05:02:13.456Z,99203.83
2019-04-14T05:04:43.834Z,99204.12
2019-04-14T05:07:14.387Z,99206.99
2019-04-14T05:09:49.105Z,99210.80
2019-04-14T05:12:26.326Z,99213.97
2019-04-14T05:17:39.429Z,99210.71
2019-04-14T05:20:09.545Z,99216.12
2019-04-14T05:22:39.788Z,99202.38
2019-04-14T05:25:10.094Z,99208.78
2019-04-14T05:27:40.823Z,99205.30
2019-04-14T05:30:11.196Z,99210.16
2019-04-14T05:32:41.285Z,99209.68
2019-04-14T05:35:11.929Z,99209.51
2019-04-14T05:37:42.113Z,99212.78
2019-04-14T05:40:12.397Z,99216.69
2019-04-14T05:42:42.729Z,99216.94
2019-04-14T05:45:13.259Z,99217.28
2019-04-14T05:47:43.636Z,99218.70
2019-04-14T05:50:13.703Z,99217.70
2019-04-14T05:52:43.120Z,99218.52
2019-04-14T05:55:13.469Z,99220.12
2019-04-14T05:57:43.794Z,99225.86
2019-04-14T06:00:16.653Z,99229.89
2019-04-14T06:02:46.350Z,99230.86
2019-04-14T06:05:16.604Z,99230.34
2019-04-14T06:07:44.854Z,99228.08
2019-04-14T06:10:14.285Z,99231.12
2019-04-14T06:12:43.699Z,99228.67
2019-04-14T06:15:13.324Z,99228.15
2019-04-14T06:17:42.681Z,99230.78
2019-04-14T06:20:12.353Z,99235.79
2019-04-14T06:22:41.791Z,99234.99
2019-04-14T06:25:11.614Z,99241.47
2019-04-14T06:27:41.067Z,99240.91
2019-04-14T06:30:18.112Z,99236.70
2019-04-14T06:32:48.463Z,99244.26
2019-04-14T06:35:36.016Z,99247.30
2019-04-14T06:38:06.999Z,99241.84
2019-04-14T06:40:37.996Z,99245.13
2019-04-14T06:43:07.426Z,99255.64
2019-04-14T06:45:36.845Z,99244.98
2019-04-14T06:48:06.275Z,99253.25
2019-04-14T06:50:35.710Z,99254.70
2019-04-14T06:53:05.078Z,99256.50
2019-04-14T06:55:34.504Z,99256.09
2019-04-14T06:58:03.929Z,99252.12
2019-04-14T07:00:33.333Z,99256.06
2019-04-14T07:03:02.769Z,99255.67
2019-04-14T07:05:32.182Z,99257.77
2019-04-14T07:08:01.604Z,99250.56
2019-04-14T07:10:31.019Z,99259.47
2019-04-14T07:13:00.453Z,99256.23
2019-04-14T07:15:29.810Z,99261.75
2019-04-14T07:17:59.165Z,99263.96
2019-04-14T07:20:28.525Z,99263.16
2019-04-14T07:22:57.916Z,99267.63
2019-04-14T07:25:27.336Z,99277.56
2019-04-14T07:27:56.773Z,99274.77
2019-04-14T07:30:30.505Z,99272.97
2019-04-14T07:36:00.200Z,99276.03
2019-04-14T07:38:31.192Z,99283.94
2019-04-14T07:41:18.597Z,99283.28
2019-04-14T07:43:55.892Z,99278.02
2019-04-14T07:46:30.019Z,99290.87
2019-04-14T07:52:01.329Z,99292.66
2019-04-14T07:54:41.107Z,99292.53
2019-04-14T07:57:11.138Z,99285.74
2019-04-14T07:59:42.140Z,99284.69
2019-04-14T08:02:16.068Z,99291.62
2019-04-14T08:04:47.092Z,99287.20
2019-04-14T08:07:16.627Z,99289.36
2019-04-14T08:09:46.001Z,99288.86
2019-04-14T08:12:15.428Z,99284.34
2019-04-14T08:14:44.812Z,99283.87
2019-04-14T08:17:14.152Z,99277.51
2019-04-14T08:19:43.566Z,99282.79
2019-04-14T08:22:13.013Z,99280.75
2019-04-14T08:24:42.508Z,99276.80
2019-04-14T08:27:11.929Z,99282.16
2019-04-14T08:29:41.289Z,99280.02
2019-04-14T08:32:10.645Z,99278.45
2019-04-14T08:34:40.040Z,99277.13
2019-04-14T08:37:09.395Z,99275.94
2019-04-14T08:39:38.795Z,99270.48
2019-04-14T08:42:12.679Z,99270.66
2019-04-14T08:47:23.201Z,99262.73
2019-04-14T08:49:54.716Z,99271.85
2019-04-14T08:52:25.959Z,99266.89
2019-04-14T08:55:00.400Z,99269.02
2019-04-14T08:57:34.794Z,99266.88
2019-04-14T09:00:13.598Z,99265.72
2019-04-14T09:02:47.805Z,99263.27
2019-04-14T09:05:18.822Z,99258.22
2019-04-14T09:07:53.033Z,99254.57
2019-04-14T09:10:24.149Z,99245.34
2019-04-14T09:12:55.145Z,99248.12
2019-04-14T09:15:24.575Z,99242.34
2019-04-14T09:17:54.002Z,99248.41
2019-04-14T09:20:23.437Z,99249.70
2019-04-14T09:22:52.919Z,99243.88
2019-04-14T09:25:22.375Z,99248.30
2019-04-14T09:27:51.814Z,99243.54
2019-04-14T09:30:21.262Z,99242.78
2019-04-14T09:32:50.658Z,99240.62
2019-04-14T09:35:20.140Z,99238.72
2019-04-14T09:37:49.589Z,99234.73
2019-04-14T09:40:19.070Z,99239.33
2019-04-14T09:42:48.407Z,99232.84
2019-04-14T09:45:17.840Z,99230.48
2019-04-14T09:47:47.308Z,99224.23
2019-04-14T09:50:18.192Z,99219.06
2019-04-14T09:52:47.822Z,99219.06
2019-04-14T09:55:17.423Z,99221.98
2019-04-14T09:57:46.775Z,99223.77
2019-04-14T10:00:16.920Z,99216.21
2019-04-14T10:02:46.421Z,99216.28
2019-04-14T10:05:15.887Z,99215.39
2019-04-14T10:07:45.339Z,99215.61
2019-04-14T10:10:14.773Z,99210.75
2019-04-14T10:12:44.198Z,99211.28
2019-04-14T10:15:16.616Z,99203.29
2019-04-14T10:17:46.179Z,99203.91
2019-04-14T10:20:15.649Z,99201.51
2019-04-14T10:22:44.975Z,99204.20
2019-04-14T10:25:14.465Z,99205.38
2019-04-14T10:27:43.916Z,99203.08
2019-04-14T10:30:13.333Z,99198.08
2019-04-14T10:32:42.683Z,99201.97
2019-04-14T10:35:12.130Z,99192.55
2019-04-14T10:37:41.538Z,99192.55
2019-04-14T10:40:11.095Z,99191.20
2019-04-14T10:42:40.564Z,99194.05
2019-04-14T10:45:09.905Z,99191.70
2019-04-14T10:47:39.472Z,99186.77
2019-04-14T10:50:08.963Z,99191.78
2019-04-14T10:52:38.448Z,99189.08
2019-04-14T10:55:09.172Z,99191.94
2019-04-14T11:00:09.477Z,99195.40
2019-04-14T11:02:38.946Z,99198.73
2019-04-14T11:05:08.457Z,99198.73
2019-04-14T11:07:37.954Z,99189.88
2019-04-14T11:10:09.251Z,99189.88
2019-04-14T11:12:38.773Z,99189.33
2019-04-14T11:15:10.681Z,99188.35
2019-04-14T11:17:40.240Z,99185.09
2019-04-14T11:20:10.461Z,99189.09
2019-04-14T11:22:39.933Z,99187.61
2019-04-14T11:25:09.384Z,99191.59
2019-04-14T11:27:38.842Z,99197.47
2019-04-14T11:30:09.951Z,99191.22
2019-04-14T11:32:40.916Z,99187.23
2019-04-14T11:35:11.919Z,99188.27
2019-04-14T11:37:57.881Z,99192.33
2019-04-14T11:40:34.884Z,99199.88
2019-04-14T11:43:04.227Z,99194.27
2019-04-14T11:45:33.661Z,99195.11
2019-04-14T11:48:03.214Z,99192.09
2019-04-14T11:50:33.679Z,99184.36
2019-04-14T11:53:03.039Z,99185.05
2019-04-14T11:55:32.595Z,99182.84
2019-04-14T11:58:01.972Z,99182.84
2019-04-14T12:00:39.094Z,99191.34
2019-04-14T12:03:25.404Z,99186.52
2019-04-14T12:05:59.345Z,99178.64
2019-04-14T12:08:46.572Z,99180.55
2019-04-14T12:11:16.059Z,99166.39
2019-04-14T12:13:46.857Z,99174.20
2019-04-14T12:16:18.321Z,99174.20
2019-04-14T12:18:47.374Z,99171.16
2019-04-14T12:21:16.752Z,99167.86
2019-04-14T12:23:46.154Z,99167.86
2019-04-14T12:26:15.690Z,99176.58
2019-04-14T12:28:45.148Z,99174.98
2019-04-14T12:31:35.341Z,99172.31
2019-04-14T12:34:04.705Z,99176.05
2019-04-14T12:36:34.081Z,99168.04
2019-04-14T12:39:05.034Z,99168.04
2019-04-14T12:41:36.021Z,99169.06
2019-04-14T12:44:07.064Z,99169.06
2019-04-14T12:46:54.593Z,99171.17
2019-04-14T12:49:25.579Z,99162.98
2019-04-14T12:51:56.585Z,99154.20
2019-04-14T12:54:27.203Z,99164.23
2019-04-14T12:56:56.602Z,99167.16
2019-04-14T12:59:26.348Z,99167.16
2019-04-14T13:02:13.480Z,99153.41
2019-04-14T13:04:42.989Z,99155.91
2019-04-14T13:07:12.420Z,99160.11
2019-04-14T13:09:41.860Z,99160.11
2019-04-14T13:12:11.299Z,99158.09
2019-04-14T13:14:40.804Z,99158.17
2019-04-14T13:17:10.242Z,99153.19
2019-04-14T13:19:39.705Z,99153.19
2019-04-14T13:22:09.071Z,99158.54
2019-04-14T13:24:38.511Z,99164.98
2019-04-14T13:27:07.984Z,99164.98
2019-04-14T13:29:37.341Z,99163.91
2019-04-14T13:32:07.186Z,99163.78
2019-04-14T13:34:36.654Z,99158.62
2019-04-14T13:37:06.031Z,99163.16
2019-04-14T13:39:35.444Z,99162.20
2019-04-14T13:42:04.794Z,99162.20
2019-04-14T13:44:34.291Z,99159.78
2019-04-14T13:47:03.729Z,99159.78
2019-04-14T13:49:33.068Z,99162.52
2019-04-14T13:52:02.412Z,99160.16
2019-04-14T13:54:31.831Z,99160.16
2019-04-14T13:57:01.184Z,99170.64
2019-04-14T13:59:30.542Z,99174.63
2019-04-14T14:02:01.700Z,99169.62
2019-04-14T14:04:31.064Z,99172.11
2019-04-14T14:07:00.513Z,99173.48
2019-04-14T14:09:29.928Z,99168.31
2019-04-14T14:12:00.951Z,99171.51
2019-04-14T14:14:37.713Z,99172.48
2019-04-14T14:17:11.402Z,99176.88
2019-04-14T14:19:45.148Z,99175.66
2019-04-14T14:25:02.406Z,99185.37
2019-04-14T14:27:31.745Z,99190.28
2019-04-14T14:30:01.109Z,99192.12
2019-04-14T14:32:34.998Z,99197.36
2019-04-14T14:35:06.214Z,99200.84
2019-04-14T14:37:35.542Z,99211.94
2019-04-14T14:40:06.710Z,99211.44
2019-04-14T14:42:36.071Z,99216.91
2019-04-14T14:45:08.893Z,99229.14
2019-04-14T14:47:38.345Z,99225.55
2019-04-14T14:50:09.434Z,99231.84
2019-04-14T14:52:39.761Z,99235.27
2019-04-14T14:55:09.308Z,99239.15
2019-04-14T14:57:38.688Z,99237.28
2019-04-14T15:00:11.110Z,99247.03
2019-04-14T15:02:40.521Z,99245.32
2019-04-14T15:05:10.047Z,99243.64
2019-04-14T15:07:39.504Z,99247.61
2019-04-14T15:10:08.941Z,99247.17
2019-04-14T15:12:38.362Z,99254.76
2019-04-14T15:15:08.086Z,99254.11
2019-04-14T15:17:37.523Z,99254.06
2019-04-14T15:20:06.886Z,99258.02
2019-04-14T15:22:36.505Z,99260.72
2019-04-14T15:25:06.333Z,99255.70
2019-04-14T15:27:35.679Z,99254.53
2019-04-14T15:30:08.878Z,99262.75
2019-04-14T15:32:38.303Z,99255.28
2019-04-14T15:35:07.737Z,99254.80
2019-04-14T15:37:37.080Z,99260.86
2019-04-14T15:40:07.612Z,99250.86
2019-04-14T15:42:36.967Z,99254.45
2019-04-14T15:45:06.974Z,99257.80
2019-04-14T15:47:36.319Z,99252.34
2019-04-14T15:50:07.360Z,99250.59
2019-04-14T15:52:36.705Z,99249.50
2019-04-14T15:55:06.547Z,99251.03
2019-04-14T15:57:37.515Z,99249.98
2019-04-14T16:00:12.770Z,99252.03
2019-04-14T16:05:36.582Z,99249.33
2019-04-14T16:08:07.562Z,99251.69
2019-04-14T16:13:29.738Z,99256.86
2019-04-14T16:16:03.624Z,99253.53
2019-04-14T16:18:34.651Z,99258.58
2019-04-14T16:21:04.495Z,99263.58
2019-04-14T16:23:33.864Z,99267.48
2019-04-14T16:26:07.541Z,99265.77
2019-04-14T16:28:38.579Z,99269.91
2019-04-14T16:31:24.949Z,99268.66
2019-04-14T16:34:02.129Z,99268.28
2019-04-14T16:36:31.582Z,99279.72
2019-04-14T16:39:00.940Z,99283.72
2019-04-14T16:41:30.399Z,99277.80
2019-04-14T16:43:59.829Z,99295.66
2019-04-14T16:46:29.307Z,99293.38
2019-04-14T16:48:58.660Z,99296.32
2019-04-14T16:51:31.826Z,99301.23
2019-04-14T16:54:03.494Z,99302.72
2019-04-14T16:56:34.673Z,99303.77
2019-04-14T16:59:05.717Z,99308.70
2019-04-14T17:01:36.728Z,99306.86
2019-04-14T17:04:06.161Z,99306.94
2019-04-14T17:06:35.594Z,99310.88
2019-04-14T17:09:07.326Z,99306.61
2019-04-14T17:11:36.676Z,99316.09
2019-04-14T17:14:07.711Z,99320.64
2019-04-14T17:16:45.874Z,99314.66
2019-04-14T17:24:43.205Z,99323.02
2019-04-14T17:27:14.239Z,99324.51
2019-04-14T17:29:51.304Z,99329.86
2019-04-14T17:32:22.319Z,99330.58
2019-04-14T17:34:54.127Z,99338.80
2019-04-14T17:37:41.569Z,99338.20
2019-04-14T17:40:12.711Z,99345.68
2019-04-14T17:45:36.594Z,99345.22
2019-04-14T17:48:07.625Z,99341.88
2019-04-14T17:53:33.530Z,99346.08
2019-04-14T18:04:16.378Z,99361.29
2019-04-14T18:06:50.344Z,99367.02
2019-04-14T18:09:21.372Z,99369.53
2019-04-14T18:12:04.363Z,99372.30
2019-04-14T18:14:47.234Z,99373.96
2019-04-14T18:17:30.524Z,99377.41
2019-04-14T18:20:01.586Z,99384.28
2019-04-14T18:22:30.952Z,99382.96
2019-04-14T18:25:00.424Z,99387.59
2019-04-14T18:27:31.428Z,99388.51
2019-04-14T18:30:02.487Z,99396.23
2019-04-14T18:32:33.565Z,99399.42
2019-04-14T18:35:07.724Z,99399.02
2019-04-14T18:43:13.943Z,99407.61
2019-04-14T18:45:53.974Z,99415.98
2019-04-14T18:51:20.921Z,99416.92
2019-04-14T18:54:04.148Z,99418.25
2019-04-14T18:56:51.403Z,99425.58
2019-04-14T18:59:31.226Z,99422.47
2019-04-14T19:02:01.658Z,99419.56
2019-04-14T19:04:31.133Z,99426.53
2019-04-14T19:07:00.676Z,99427.73
2019-04-14T19:09:30.105Z,99432.52
2019-04-14T19:12:01.124Z,99436.37
2019-04-14T19:14:32.122Z,99433.36
2019-04-14T19:20:02.026Z,99435.81
2019-04-14T19:22:26.918Z,99434.02
2019-04-14T19:25:07.282Z,99433.86
2019-04-14T19:27:27.458Z,99436.09
2019-04-14T19:29:56.826Z,99432.26
2019-04-14T19:32:26.263Z,99433.77
2019-04-14T19:34:55.713Z,99437.78
2019-04-14T19:37:25.166Z,99437.89
2019-04-14T19:39:54.503Z,99433.09
2019-04-14T19:42:24.977Z,99443.43
2019-04-14T19:44:54.343Z,99440.05
2019-04-14T19:47:23.728Z,99440.79
2019-04-14T19:49:53.181Z,99441.00
2019-04-14T19:52:22.555Z,99433.10
2019-04-14T19:54:51.989Z,99435.24
2019-04-14T19:57:21.425Z,99438.55
2019-04-14T19:59:50.780Z,99435.17
2019-04-14T20:02:20.117Z,99445.00
2019-04-14T20:04:49.485Z,99441.16
2019-04-14T20:07:18.917Z,99440.12
2019-04-14T20:09:48.350Z,99447.53
2019-04-14T20:12:17.785Z,99444.55
2019-04-14T20:14:47.235Z,99447.16
2019-04-14T20:19:56.947Z,99453.75
2019-04-14T20:22:27.935Z,99452.25
2019-04-14T20:25:01.824Z,99452.70
2019-04-14T20:27:47.920Z,99459.18
2019-04-14T20:30:18.961Z,99461.73
2019-04-14T20:32:49.877Z,99456.66
2019-04-14T20:35:19.405Z,99457.85
2019-04-14T20:37:48.753Z,99458.89
2019-04-14T20:40:18.349Z,99456.00
2019-04-14T20:42:47.720Z,99454.02
2019-04-14T20:45:17.635Z,99456.81
2019-04-14T20:47:47.088Z,99456.53
2019-04-14T20:50:16.639Z,99457.19
2019-04-14T20:52:46.167Z,99456.89
2019-04-14T20:55:15.528Z,99462.91
2019-04-14T20:57:44.878Z,99465.27
2019-04-14T21:00:14.413Z,99472.31
2019-04-14T21:02:48.510Z,99463.38
2019-04-14T21:10:54.036Z,99466.84
2019-04-14T21:13:31.040Z,99473.89
2019-04-14T21:16:12.207Z,99473.98
2019-04-14T21:21:13.663Z,99476.23
2019-04-14T21:23:44.662Z,99482.53
2019-04-14T21:31:52.662Z,99477.84
2019-04-14T21:34:23.689Z,99475.66
2019-04-14T21:37:11.145Z,99484.45
2019-04-14T21:39:42.155Z,99477.89
2019-04-14T21:42:11.574Z,99471.84
2019-04-14T21:44:40.923Z,99474.00
2019-04-14T21:47:10.341Z,99479.75
2019-04-14T21:49:39.690Z,99473.40
2019-04-14T21:52:10.674Z,99479.98
2019-04-14T21:54:41.678Z,99476.50
2019-04-14T21:57:29.215Z,99477.20
2019-04-14T22:00:16.788Z,99479.17
2019-04-14T22:05:52.703Z,99487.78
2019-04-14T22:08:25.206Z,99484.58
2019-04-14T22:10:56.414Z,99481.88
2019-04-14T22:13:25.837Z,99484.13
2019-04-14T22:15:55.329Z,99484.27
2019-04-14T22:18:24.632Z,99486.12
2019-04-14T22:20:53.984Z,99482.91
2019-04-14T22:23:23.429Z,99486.32
2019-04-14T22:25:52.805Z,99492.41
2019-04-14T22:28:22.494Z,99486.80
2019-04-14T22:30:51.906Z,99493.72
2019-04-14T22:33:21.331Z,99487.14
2019-04-14T22:35:50.684Z,99483.79
2019-04-14T22:38:20.029Z,99485.50
2019-04-14T22:40:49.382Z,99484.14
2019-04-14T22:43:18.726Z,99487.36
2019-04-14T22:45:48.147Z,99475.63
2019-04-14T22:48:17.508Z,99482.34
2019-04-14T22:50:46.866Z,99479.47
2019-04-14T22:53:16.213Z,99480.95
2019-04-14T22:55:45.564Z,99482.04
2019-04-14T22:58:14.981Z,99481.75
2019-04-14T23:06:23.713Z,99482.36
2019-04-14T23:09:06.714Z,99480.85
2019-04-14T23:11:37.717Z,99481.22
2019-04-14T23:17:17.453Z,99486.56
2019-04-14T23:22:56.443Z,99478.65
2019-04-14T23:25:25.867Z,99473.90
2019-04-14T23:27:55.287Z,99474.66
2019-04-14T23:30:24.631Z,99472.22
2019-04-14T23:32:53.981Z,99467.50
2019-04-14T23:35:23.339Z,99472.56
2019-04-14T23:37:52.676Z,99470.91
2019-04-14T23:40:22.092Z,99473.58
2019-04-14T23:42:51.509Z,99470.55
2019-04-14T23:45:20.922Z,99475.27
2019-04-14T23:47:50.261Z,99472.81
2019-04-14T23:50:19.684Z,99474.32
2019-04-14T23:52:49.112Z,99473.77
2019-04-14T23:55:18.515Z,99470.78
2019-04-14T23:57:47.936Z,99471.88
